WetterOnline ( http://www.wetteronline.de )

Wetter aktuell Cuxhaven

Aktuelles Wetter: Cuxhaven (12m)

6-stündlich | Neueste Meldungen
Ortszeit Temperatur Wetter
Fr, 23.02. 1:00 -0.2° C wolkig
Do, 22.02. 19:00 1.2° C wolkig
Do, 22.02. 13:00 1.1° C bedeckt
Do, 22.02. 7:00 1.5° C bedeckt
Do, 22.02. 1:00 0.9° C bedeckt
Mi, 21.02. 19:00 1.9° C wolkenlos
Mi, 21.02. 13:00 2.5° C wolkig
Mi, 21.02. 7:00 0.3° C wolkenlos
Ortszeit Temperatur Wetter
Fr, 23.02. 3:00 0.3° C bedeckt
Fr, 23.02. 2:50 0.3° C bedeckt
Fr, 23.02. 2:40 0.3° C bedeckt
Fr, 23.02. 2:30 0.3° C bedeckt
Fr, 23.02. 2:20 0.3° C bedeckt
Fr, 23.02. 2:10 0.2° C bedeckt
Fr, 23.02. 2:00 0.1° C bedeckt
Fr, 23.02. 1:30 -0.1° C bewölkt
Fr, 23.02. 1:00 -0.2° C wolkig
Fr, 23.02. 0:30 -0.0° C wolkenlos
Fr, 23.02. 0:00 -0.0° C wolkenlos
Ortszeit Relative Feuchte Sichtweite
Fr, 23.02. 1:00 90% 8 km
Do, 22.02. 19:00 88% 5.0 km
Do, 22.02. 13:00 83% 6 km
Do, 22.02. 7:00 83% 4.8 km
Do, 22.02. 1:00 84% 5.0 km
Mi, 21.02. 19:00 77% 11 km
Mi, 21.02. 13:00 70% 7 km
Mi, 21.02. 7:00 83% 7 km
Ortszeit Relative Feuchte Sichtweite
Fr, 23.02. 3:00 88% 13 km
Fr, 23.02. 2:50 88% -
Fr, 23.02. 2:40 88% -
Fr, 23.02. 2:30 88% 12 km
Fr, 23.02. 2:20 88% -
Fr, 23.02. 2:10 88% -
Fr, 23.02. 2:00 88% 13 km
Fr, 23.02. 1:30 90% 9 km
Fr, 23.02. 1:00 90% 8 km
Fr, 23.02. 0:30 88% 8 km
Fr, 23.02. 0:00 90% 7 km
Ortszeit Niederschlagsmenge Niederschlagsart
Fr, 23.02. 1:00 0.0 l/m2 in 6 Std. -
Do, 22.02. 19:00 0.1 l/m2 in 12 Std. -
Do, 22.02. 13:00 0.1 l/m2 in 6 Std. Schnee, Sprühregen
Do, 22.02. 7:00 0.1 l/m2 in 12 Std. Schnee, Niederschlag
Do, 22.02. 1:00 0.0 l/m2 in 6 Std. -
Mi, 21.02. 19:00 0.0 l/m2 in 12 Std. -
Mi, 21.02. 13:00 0.0 l/m2 in 6 Std. -
Mi, 21.02. 7:00 0.0 l/m2 in 12 Std. -
Ortszeit Niederschlagsmenge Niederschlagsart
Fr, 23.02. 3:00 0.0 l/m2 in 1 Std. -
Fr, 23.02. 2:50 keine Meldung -
Fr, 23.02. 2:40 keine Meldung -
Fr, 23.02. 2:30 0.0 l/m2 in 1 Std. -
Fr, 23.02. 2:20 keine Meldung -
Fr, 23.02. 2:10 keine Meldung -
Fr, 23.02. 2:00 0.0 l/m2 in 1 Std. -
Fr, 23.02. 1:30 0.0 l/m2 in 1 Std. -
Fr, 23.02. 1:00 0.0 l/m2 in 1 Std. -
Fr, 23.02. 0:30 0.0 l/m2 in 1 Std. -
Fr, 23.02. 0:00 0.0 l/m2 in 1 Std. -
Ortszeit Stärke Spitze Richtung
km/h Bft. km/h Grad Sektor
Fr, 23.02. 1:00 17 3 31 50° NO
Do, 22.02. 19:00 11 2 18 60° NO
Do, 22.02. 13:00 7 2 14 210° SW
Do, 22.02. 7:00 4 1 7 340° N
Do, 22.02. 1:00 7 2 14 90° O
Mi, 21.02. 19:00 11 2 18 70° O
Mi, 21.02. 13:00 11 2 18 90° O
Mi, 21.02. 7:00 13 3 24 70° O
Ortszeit Stärke Spitze Richtung
km/h Bft. km/h Grad Sektor
Fr, 23.02. 3:00 22 4 32 70° O
Fr, 23.02. 2:50 22 4 - 70° O
Fr, 23.02. 2:40 22 4 - 70° O
Fr, 23.02. 2:30 22 4 32 70° O
Fr, 23.02. 2:20 22 4 - 70° O
Fr, 23.02. 2:10 20 4 - 70° O
Fr, 23.02. 2:00 18 3 29 70° O
Fr, 23.02. 1:30 18 3 25 50° NO
Fr, 23.02. 1:00 17 3 26 50° NO
Fr, 23.02. 0:30 18 3 25 50° NO
Fr, 23.02. 0:00 14 3 25 60° NO
Ortszeit Untergrenze Bedeckung Gattung
total tief tief mittel hoch
Fr, 23.02. 1:00 1350 m 5/8 5/8 - - -
Do, 22.02. 19:00 750 m 6/8 6/8 - - -
Do, 22.02. 13:00 510 m 8/8 8/8 - - -
Do, 22.02. 7:00 990 m 8/8 8/8 - - -
Do, 22.02. 1:00 1380 m 8/8 8/8 - - -
Mi, 21.02. 19:00 - 0/8 0/8 - - -
Mi, 21.02. 13:00 3900 m 6/8 6/8 - - -
Mi, 21.02. 7:00 - 0/8 0/8 - - -
Ortszeit Bedeckungsgrad in Achtel und Wolkenuntergrenze
Fr, 23.02. 3:00 8(1260m)
Fr, 23.02. 2:50 8(1260m)
Fr, 23.02. 2:40 8(1200m)
Fr, 23.02. 2:30 8(1230m)
Fr, 23.02. 2:20 8(1230m)
Fr, 23.02. 2:10 8(1260m)
Fr, 23.02. 2:00 8(1260m)
Fr, 23.02. 1:30 7(1290m)
Fr, 23.02. 1:00 5(1350m)
Fr, 23.02. 0:30 1(1320m)
Fr, 23.02. 0:00 keine Wolken
Ortszeit Luftdruck NN (hPa) Tendenz (hPa in 3 Std.)
Fr, 23.02. 1:00 1027 0,0
Do, 22.02. 19:00 1027 - 0,1
Do, 22.02. 13:00 1028 - 0,1
Do, 22.02. 7:00 1028 - 0,2
Do, 22.02. 1:00 1028 0,0
Mi, 21.02. 19:00 1028 + 0,4
Mi, 21.02. 13:00 1028 + 0,3
Mi, 21.02. 7:00 1027 + 0,2
Ortszeit Luftdruck NN (hPa) Tendenz (hPa in 3 Std.)
Fr, 23.02. 3:00 1027 - 0,5
Fr, 23.02. 2:50 1027 keine Meldung
Fr, 23.02. 2:40 1027 keine Meldung
Fr, 23.02. 2:30 1027 - 0,3
Fr, 23.02. 2:20 1027 keine Meldung
Fr, 23.02. 2:10 1027 keine Meldung
Fr, 23.02. 2:00 1027 - 0,2
Fr, 23.02. 1:30 1027 - 0,1
Fr, 23.02. 1:00 1027 0,0
Fr, 23.02. 0:30 1027 + 0,2
Fr, 23.02. 0:00 1027 + 0,2
Ortszeit Schneehöhe (cm)
Fr, 23.02. 1:00 0
Do, 22.02. 19:00 0
Do, 22.02. 13:00 0
Do, 22.02. 7:00 0
Do, 22.02. 1:00 0
Mi, 21.02. 19:00 0
Mi, 21.02. 13:00 0
Mi, 21.02. 7:00 0
Ortszeit Schneehöhe (cm)
Fr, 23.02. 3:00 0
Fr, 23.02. 2:50 0
Fr, 23.02. 2:40 0
Fr, 23.02. 2:30 0
Fr, 23.02. 2:20 0
Fr, 23.02. 2:10 0
Fr, 23.02. 2:00 0
Fr, 23.02. 1:30 0
Fr, 23.02. 1:00 0
Fr, 23.02. 0:30 0
Fr, 23.02. 0:00 0
Link zu dieser Seite / Seite empfehlen

Das Wetter in ...